sensor_id;sensor_type;location;lat;lon;timestamp;P1;durP1;ratioP1;P2;durP2;ratioP2
21554;SDS011;10938;44.794;-0.676;2023-07-20T00:01:29;0.27;;;0.27;;
21554;SDS011;10938;44.794;-0.676;2023-07-20T00:03:54;0.17;;;0.17;;
21554;SDS011;10938;44.794;-0.676;2023-07-20T00:06:22;0.50;;;0.43;;
21554;SDS011;10938;44.794;-0.676;2023-07-20T00:08:48;0.30;;;0.30;;
21554;SDS011;10938;44.794;-0.676;2023-07-20T00:11:14;0.25;;;0.25;;
21554;SDS011;10938;44.794;-0.676;2023-07-20T00:13:39;0.10;;;0.10;;
21554;SDS011;10938;44.794;-0.676;2023-07-20T00:16:05;0.20;;;0.20;;
21554;SDS011;10938;44.794;-0.676;2023-07-20T00:18:31;0.20;;;0.20;;
21554;SDS011;10938;44.794;-0.676;2023-07-20T00:20:56;0.30;;;0.22;;
21554;SDS011;10938;44.794;-0.676;2023-07-20T00:23:21;0.10;;;0.10;;
21554;SDS011;10938;44.794;-0.676;2023-07-20T00:25:47;2.03;;;0.20;;
21554;SDS011;10938;44.794;-0.676;2023-07-20T00:28:13;0.38;;;0.30;;
21554;SDS011;10938;44.794;-0.676;2023-07-20T00:30:38;0.30;;;0.30;;
21554;SDS011;10938;44.794;-0.676;2023-07-20T00:33:03;0.10;;;0.10;;
21554;SDS011;10938;44.794;-0.676;2023-07-20T00:35:29;0.27;;;0.27;;
21554;SDS011;10938;44.794;-0.676;2023-07-20T00:37:54;0.30;;;0.20;;
21554;SDS011;10938;44.794;-0.676;2023-07-20T00:40:19;0.47;;;0.47;;
21554;SDS011;10938;44.794;-0.676;2023-07-20T00:42:44;0.50;;;0.50;;
21554;SDS011;10938;44.794;-0.676;2023-07-20T00:45:10;0.33;;;0.33;;
21554;SDS011;10938;44.794;-0.676;2023-07-20T00:47:35;0.20;;;0.20;;
21554;SDS011;10938;44.794;-0.676;2023-07-20T00:50:01;0.25;;;0.25;;
21554;SDS011;10938;44.794;-0.676;2023-07-20T00:52:27;0.43;;;0.25;;
21554;SDS011;10938;44.794;-0.676;2023-07-20T00:54:52;0.10;;;0.10;;
21554;SDS011;10938;44.794;-0.676;2023-07-20T00:57:21;0.10;;;0.10;;
21554;SDS011;10938;44.794;-0.676;2023-07-20T00:59:48;0.25;;;0.25;;
21554;SDS011;10938;44.794;-0.676;2023-07-20T01:02:13;0.47;;;0.47;;
21554;SDS011;10938;44.794;-0.676;2023-07-20T01:04:38;0.40;;;0.40;;
21554;SDS011;10938;44.794;-0.676;2023-07-20T01:15:00;0.20;;;0.20;;
21554;SDS011;10938;44.794;-0.676;2023-07-20T01:17:25;0.40;;;0.30;;
21554;SDS011;10938;44.794;-0.676;2023-07-20T01:19:50;0.30;;;0.30;;
21554;SDS011;10938;44.794;-0.676;2023-07-20T01:22:21;0.30;;;0.30;;
21554;SDS011;10938;44.794;-0.676;2023-07-20T01:30:10;0.30;;;0.17;;
21554;SDS011;10938;44.794;-0.676;2023-07-20T01:32:39;0.60;;;0.60;;
21554;SDS011;10938;44.794;-0.676;2023-07-20T01:35:05;0.50;;;0.50;;
21554;SDS011;10938;44.794;-0.676;2023-07-20T01:37:31;0.30;;;0.30;;
21554;SDS011;10938;44.794;-0.676;2023-07-20T01:39:57;0.20;;;0.20;;
21554;SDS011;10938;44.794;-0.676;2023-07-20T01:42:23;0.75;;;0.40;;
21554;SDS011;10938;44.794;-0.676;2023-07-20T01:44:52;0.22;;;0.22;;
21554;SDS011;10938;44.794;-0.676;2023-07-20T01:47:18;0.10;;;0.10;;
21554;SDS011;10938;44.794;-0.676;2023-07-20T01:49:43;0.77;;;0.43;;
21554;SDS011;10938;44.794;-0.676;2023-07-20T01:52:09;0.33;;;0.33;;
21554;SDS011;10938;44.794;-0.676;2023-07-20T01:54:34;0.20;;;0.20;;
21554;SDS011;10938;44.794;-0.676;2023-07-20T01:56:59;0.50;;;0.20;;
21554;SDS011;10938;44.794;-0.676;2023-07-20T01:59:24;0.10;;;0.10;;
21554;SDS011;10938;44.794;-0.676;2023-07-20T02:01:50;0.40;;;0.23;;
21554;SDS011;10938;44.794;-0.676;2023-07-20T02:04:15;0.22;;;0.22;;
21554;SDS011;10938;44.794;-0.676;2023-07-20T02:06:40;0.10;;;0.10;;
21554;SDS011;10938;44.794;-0.676;2023-07-20T02:09:05;0.27;;;0.27;;
21554;SDS011;10938;44.794;-0.676;2023-07-20T02:11:31;0.17;;;0.17;;
21554;SDS011;10938;44.794;-0.676;2023-07-20T02:13:56;0.30;;;0.30;;
21554;SDS011;10938;44.794;-0.676;2023-07-20T02:16:21;0.20;;;0.20;;
21554;SDS011;10938;44.794;-0.676;2023-07-20T02:18:47;0.20;;;0.20;;
21554;SDS011;10938;44.794;-0.676;2023-07-20T02:21:12;0.50;;;0.28;;
21554;SDS011;10938;44.794;-0.676;2023-07-20T02:23:40;0.40;;;0.40;;
21554;SDS011;10938;44.794;-0.676;2023-07-20T02:26:05;0.30;;;0.30;;
21554;SDS011;10938;44.794;-0.676;2023-07-20T02:28:31;0.10;;;0.10;;
21554;SDS011;10938;44.794;-0.676;2023-07-20T02:30:57;0.40;;;0.40;;
21554;SDS011;10938;44.794;-0.676;2023-07-20T02:33:22;0.30;;;0.30;;
21554;SDS011;10938;44.794;-0.676;2023-07-20T02:35:47;0.28;;;0.20;;
21554;SDS011;10938;44.794;-0.676;2023-07-20T02:38:12;0.40;;;0.40;;
21554;SDS011;10938;44.794;-0.676;2023-07-20T02:40:38;2.83;;;0.38;;
21554;SDS011;10938;44.794;-0.676;2023-07-20T02:43:03;0.28;;;0.28;;
21554;SDS011;10938;44.794;-0.676;2023-07-20T02:45:29;0.20;;;0.20;;
21554;SDS011;10938;44.794;-0.676;2023-07-20T02:47:54;0.30;;;0.30;;
21554;SDS011;10938;44.794;-0.676;2023-07-20T02:50:19;0.77;;;0.50;;
21554;SDS011;10938;44.794;-0.676;2023-07-20T02:52:44;0.43;;;0.30;;
21554;SDS011;10938;44.794;-0.676;2023-07-20T02:55:10;0.32;;;0.32;;
21554;SDS011;10938;44.794;-0.676;2023-07-20T02:57:35;1.10;;;0.40;;
21554;SDS011;10938;44.794;-0.676;2023-07-20T03:00:01;0.57;;;0.57;;
21554;SDS011;10938;44.794;-0.676;2023-07-20T03:02:29;0.20;;;0.20;;
21554;SDS011;10938;44.794;-0.676;2023-07-20T03:04:54;0.20;;;0.20;;
21554;SDS011;10938;44.794;-0.676;2023-07-20T03:07:22;0.25;;;0.25;;
21554;SDS011;10938;44.794;-0.676;2023-07-20T03:09:50;0.30;;;0.30;;
21554;SDS011;10938;44.794;-0.676;2023-07-20T03:12:16;0.22;;;0.22;;
21554;SDS011;10938;44.794;-0.676;2023-07-20T03:14:41;0.93;;;0.83;;
21554;SDS011;10938;44.794;-0.676;2023-07-20T03:17:06;0.30;;;0.30;;
21554;SDS011;10938;44.794;-0.676;2023-07-20T03:19:33;0.22;;;0.22;;
21554;SDS011;10938;44.794;-0.676;2023-07-20T03:21:59;0.50;;;0.43;;
21554;SDS011;10938;44.794;-0.676;2023-07-20T03:24:24;0.37;;;0.37;;
21554;SDS011;10938;44.794;-0.676;2023-07-20T03:26:49;0.20;;;0.20;;
21554;SDS011;10938;44.794;-0.676;2023-07-20T03:29:14;0.23;;;0.23;;
21554;SDS011;10938;44.794;-0.676;2023-07-20T03:31:41;0.30;;;0.30;;
21554;SDS011;10938;44.794;-0.676;2023-07-20T03:34:06;0.40;;;0.35;;
21554;SDS011;10938;44.794;-0.676;2023-07-20T03:36:33;0.52;;;0.32;;
21554;SDS011;10938;44.794;-0.676;2023-07-20T03:38:58;0.30;;;0.30;;
21554;SDS011;10938;44.794;-0.676;2023-07-20T03:41:24;0.35;;;0.35;;
21554;SDS011;10938;44.794;-0.676;2023-07-20T03:43:49;0.20;;;0.20;;
21554;SDS011;10938;44.794;-0.676;2023-07-20T03:46:15;1.50;;;0.52;;
21554;SDS011;10938;44.794;-0.676;2023-07-20T03:48:40;0.50;;;0.50;;
21554;SDS011;10938;44.794;-0.676;2023-07-20T03:51:05;0.40;;;0.40;;
21554;SDS011;10938;44.794;-0.676;2023-07-20T03:53:31;0.60;;;0.50;;
21554;SDS011;10938;44.794;-0.676;2023-07-20T03:55:56;0.38;;;0.38;;
21554;SDS011;10938;44.794;-0.676;2023-07-20T03:58:22;0.30;;;0.30;;
21554;SDS011;10938;44.794;-0.676;2023-07-20T04:00:48;0.52;;;0.52;;
21554;SDS011;10938;44.794;-0.676;2023-07-20T04:03:15;0.40;;;0.40;;
21554;SDS011;10938;44.794;-0.676;2023-07-20T04:05:40;0.10;;;0.10;;
21554;SDS011;10938;44.794;-0.676;2023-07-20T04:08:06;0.40;;;0.30;;
21554;SDS011;10938;44.794;-0.676;2023-07-20T04:10:31;0.32;;;0.32;;
21554;SDS011;10938;44.794;-0.676;2023-07-20T04:12:56;0.40;;;0.40;;
21554;SDS011;10938;44.794;-0.676;2023-07-20T04:15:22;0.30;;;0.30;;
21554;SDS011;10938;44.794;-0.676;2023-07-20T04:17:47;0.40;;;0.40;;
21554;SDS011;10938;44.794;-0.676;2023-07-20T04:20:12;0.20;;;0.20;;
21554;SDS011;10938;44.794;-0.676;2023-07-20T04:22:38;0.30;;;0.30;;
21554;SDS011;10938;44.794;-0.676;2023-07-20T04:25:03;0.20;;;0.20;;
21554;SDS011;10938;44.794;-0.676;2023-07-20T04:27:28;0.30;;;0.30;;
21554;SDS011;10938;44.794;-0.676;2023-07-20T04:29:54;0.23;;;0.23;;
21554;SDS011;10938;44.794;-0.676;2023-07-20T04:32:19;0.30;;;0.30;;
21554;SDS011;10938;44.794;-0.676;2023-07-20T04:34:44;0.30;;;0.30;;
21554;SDS011;10938;44.794;-0.676;2023-07-20T04:37:10;1.53;;;0.50;;
21554;SDS011;10938;44.794;-0.676;2023-07-20T04:39:35;0.10;;;0.10;;
21554;SDS011;10938;44.794;-0.676;2023-07-20T04:42:00;0.30;;;0.30;;
21554;SDS011;10938;44.794;-0.676;2023-07-20T04:44:25;0.47;;;0.47;;
21554;SDS011;10938;44.794;-0.676;2023-07-20T04:46:51;1.40;;;0.70;;
21554;SDS011;10938;44.794;-0.676;2023-07-20T04:49:16;0.60;;;0.60;;
21554;SDS011;10938;44.794;-0.676;2023-07-20T04:51:41;0.23;;;0.23;;
21554;SDS011;10938;44.794;-0.676;2023-07-20T04:54:06;0.60;;;0.22;;
21554;SDS011;10938;44.794;-0.676;2023-07-20T04:56:32;0.30;;;0.30;;
21554;SDS011;10938;44.794;-0.676;2023-07-20T04:58:58;0.30;;;0.30;;
21554;SDS011;10938;44.794;-0.676;2023-07-20T05:01:23;0.87;;;0.60;;
21554;SDS011;10938;44.794;-0.676;2023-07-20T05:03:48;0.30;;;0.30;;
21554;SDS011;10938;44.794;-0.676;2023-07-20T05:06:14;0.20;;;0.20;;
21554;SDS011;10938;44.794;-0.676;2023-07-20T05:08:40;0.40;;;0.40;;
21554;SDS011;10938;44.794;-0.676;2023-07-20T05:11:05;0.20;;;0.20;;
21554;SDS011;10938;44.794;-0.676;2023-07-20T05:13:30;0.17;;;0.17;;
21554;SDS011;10938;44.794;-0.676;2023-07-20T05:15:56;0.57;;;0.50;;
21554;SDS011;10938;44.794;-0.676;2023-07-20T05:18:21;0.20;;;0.20;;
21554;SDS011;10938;44.794;-0.676;2023-07-20T05:20:47;1.10;;;1.00;;
21554;SDS011;10938;44.794;-0.676;2023-07-20T05:23:12;0.40;;;0.40;;
21554;SDS011;10938;44.794;-0.676;2023-07-20T05:25:38;0.15;;;0.15;;
21554;SDS011;10938;44.794;-0.676;2023-07-20T05:28:03;0.40;;;0.40;;
21554;SDS011;10938;44.794;-0.676;2023-07-20T05:30:28;0.70;;;0.38;;
21554;SDS011;10938;44.794;-0.676;2023-07-20T05:32:54;0.35;;;0.35;;
21554;SDS011;10938;44.794;-0.676;2023-07-20T05:35:19;0.25;;;0.22;;
21554;SDS011;10938;44.794;-0.676;2023-07-20T05:37:45;0.40;;;0.30;;
21554;SDS011;10938;44.794;-0.676;2023-07-20T05:40:10;0.22;;;0.22;;
21554;SDS011;10938;44.794;-0.676;2023-07-20T05:42:37;0.25;;;0.25;;
21554;SDS011;10938;44.794;-0.676;2023-07-20T05:45:02;0.17;;;0.17;;
21554;SDS011;10938;44.794;-0.676;2023-07-20T05:47:28;0.28;;;0.28;;
21554;SDS011;10938;44.794;-0.676;2023-07-20T05:49:54;0.25;;;0.25;;
21554;SDS011;10938;44.794;-0.676;2023-07-20T05:52:22;0.40;;;0.40;;
21554;SDS011;10938;44.794;-0.676;2023-07-20T05:54:47;0.20;;;0.20;;
21554;SDS011;10938;44.794;-0.676;2023-07-20T05:57:12;0.27;;;0.23;;
21554;SDS011;10938;44.794;-0.676;2023-07-20T05:59:38;0.22;;;0.22;;
21554;SDS011;10938;44.794;-0.676;2023-07-20T06:02:05;0.57;;;0.55;;
21554;SDS011;10938;44.794;-0.676;2023-07-20T06:04:31;0.20;;;0.20;;
21554;SDS011;10938;44.794;-0.676;2023-07-20T06:06:56;0.10;;;0.10;;
21554;SDS011;10938;44.794;-0.676;2023-07-20T06:09:21;0.47;;;0.47;;
21554;SDS011;10938;44.794;-0.676;2023-07-20T06:11:46;0.27;;;0.27;;
21554;SDS011;10938;44.794;-0.676;2023-07-20T06:14:12;0.40;;;0.40;;
21554;SDS011;10938;44.794;-0.676;2023-07-20T06:16:37;0.27;;;0.27;;
21554;SDS011;10938;44.794;-0.676;2023-07-20T06:19:02;0.10;;;0.10;;
21554;SDS011;10938;44.794;-0.676;2023-07-20T06:21:28;0.10;;;0.10;;
21554;SDS011;10938;44.794;-0.676;2023-07-20T06:23:53;0.30;;;0.30;;
21554;SDS011;10938;44.794;-0.676;2023-07-20T06:26:18;0.30;;;0.30;;
21554;SDS011;10938;44.794;-0.676;2023-07-20T06:28:44;2.20;;;0.38;;
21554;SDS011;10938;44.794;-0.676;2023-07-20T06:31:10;0.20;;;0.20;;
21554;SDS011;10938;44.794;-0.676;2023-07-20T06:33:36;0.25;;;0.25;;
21554;SDS011;10938;44.794;-0.676;2023-07-20T06:36:01;0.27;;;0.27;;
21554;SDS011;10938;44.794;-0.676;2023-07-20T06:38:27;0.20;;;0.20;;
21554;SDS011;10938;44.794;-0.676;2023-07-20T06:40:52;0.30;;;0.30;;
21554;SDS011;10938;44.794;-0.676;2023-07-20T06:43:18;0.23;;;0.23;;
21554;SDS011;10938;44.794;-0.676;2023-07-20T06:45:43;0.73;;;0.32;;
21554;SDS011;10938;44.794;-0.676;2023-07-20T06:48:09;0.53;;;0.30;;
21554;SDS011;10938;44.794;-0.676;2023-07-20T06:50:34;0.43;;;0.35;;
21554;SDS011;10938;44.794;-0.676;2023-07-20T06:52:59;0.40;;;0.40;;
21554;SDS011;10938;44.794;-0.676;2023-07-20T06:55:28;0.30;;;0.30;;
21554;SDS011;10938;44.794;-0.676;2023-07-20T06:57:53;0.20;;;0.20;;
21554;SDS011;10938;44.794;-0.676;2023-07-20T07:00:18;2.23;;;0.93;;
21554;SDS011;10938;44.794;-0.676;2023-07-20T07:02:44;0.30;;;0.30;;
21554;SDS011;10938;44.794;-0.676;2023-07-20T07:05:09;1.70;;;0.90;;
21554;SDS011;10938;44.794;-0.676;2023-07-20T07:07:34;0.20;;;0.20;;
21554;SDS011;10938;44.794;-0.676;2023-07-20T07:10:00;0.70;;;0.70;;
21554;SDS011;10938;44.794;-0.676;2023-07-20T07:12:26;0.32;;;0.32;;
21554;SDS011;10938;44.794;-0.676;2023-07-20T07:14:51;0.30;;;0.30;;
21554;SDS011;10938;44.794;-0.676;2023-07-20T07:17:17;0.38;;;0.38;;
21554;SDS011;10938;44.794;-0.676;2023-07-20T07:19:43;0.40;;;0.40;;
21554;SDS011;10938;44.794;-0.676;2023-07-20T07:22:09;0.50;;;0.50;;
21554;SDS011;10938;44.794;-0.676;2023-07-20T07:24:34;0.20;;;0.20;;
21554;SDS011;10938;44.794;-0.676;2023-07-20T07:27:00;0.67;;;0.60;;
21554;SDS011;10938;44.794;-0.676;2023-07-20T07:29:26;0.73;;;0.60;;
21554;SDS011;10938;44.794;-0.676;2023-07-20T07:31:51;0.50;;;0.50;;
21554;SDS011;10938;44.794;-0.676;2023-07-20T07:34:17;0.73;;;0.70;;
21554;SDS011;10938;44.794;-0.676;2023-07-20T07:36:42;0.93;;;0.93;;
21554;SDS011;10938;44.794;-0.676;2023-07-20T07:39:08;0.70;;;0.70;;
21554;SDS011;10938;44.794;-0.676;2023-07-20T07:41:34;1.40;;;1.30;;
21554;SDS011;10938;44.794;-0.676;2023-07-20T07:43:59;1.13;;;1.13;;
21554;SDS011;10938;44.794;-0.676;2023-07-20T07:46:24;0.83;;;0.83;;
21554;SDS011;10938;44.794;-0.676;2023-07-20T07:48:50;1.00;;;1.00;;
21554;SDS011;10938;44.794;-0.676;2023-07-20T07:51:15;1.00;;;1.00;;
21554;SDS011;10938;44.794;-0.676;2023-07-20T07:53:40;1.10;;;1.10;;
21554;SDS011;10938;44.794;-0.676;2023-07-20T07:56:09;1.20;;;1.20;;
21554;SDS011;10938;44.794;-0.676;2023-07-20T07:58:34;1.38;;;1.27;;
21554;SDS011;10938;44.794;-0.676;2023-07-20T08:01:00;1.30;;;1.20;;
21554;SDS011;10938;44.794;-0.676;2023-07-20T08:03:25;1.00;;;1.00;;
21554;SDS011;10938;44.794;-0.676;2023-07-20T08:05:51;1.45;;;1.38;;
21554;SDS011;10938;44.794;-0.676;2023-07-20T08:08:17;1.10;;;1.10;;
21554;SDS011;10938;44.794;-0.676;2023-07-20T08:10:42;1.38;;;1.38;;
21554;SDS011;10938;44.794;-0.676;2023-07-20T08:13:07;1.20;;;1.20;;
21554;SDS011;10938;44.794;-0.676;2023-07-20T08:15:33;1.33;;;1.30;;
21554;SDS011;10938;44.794;-0.676;2023-07-20T08:17:58;1.17;;;1.17;;
21554;SDS011;10938;44.794;-0.676;2023-07-20T08:20:27;1.10;;;1.10;;
21554;SDS011;10938;44.794;-0.676;2023-07-20T08:22:53;1.00;;;1.00;;
21554;SDS011;10938;44.794;-0.676;2023-07-20T08:25:19;0.82;;;0.82;;
21554;SDS011;10938;44.794;-0.676;2023-07-20T08:27:45;1.27;;;1.25;;
21554;SDS011;10938;44.794;-0.676;2023-07-20T08:30:12;1.00;;;1.00;;
21554;SDS011;10938;44.794;-0.676;2023-07-20T08:32:37;1.15;;;1.15;;
21554;SDS011;10938;44.794;-0.676;2023-07-20T08:35:02;1.50;;;1.43;;
21554;SDS011;10938;44.794;-0.676;2023-07-20T08:37:28;1.00;;;1.00;;
21554;SDS011;10938;44.794;-0.676;2023-07-20T08:39:53;1.20;;;1.20;;
21554;SDS011;10938;44.794;-0.676;2023-07-20T08:42:18;1.47;;;1.37;;
21554;SDS011;10938;44.794;-0.676;2023-07-20T08:44:43;1.20;;;1.20;;
21554;SDS011;10938;44.794;-0.676;2023-07-20T08:47:10;1.10;;;1.10;;
21554;SDS011;10938;44.794;-0.676;2023-07-20T08:49:35;1.73;;;1.65;;
21554;SDS011;10938;44.794;-0.676;2023-07-20T08:52:02;1.70;;;1.60;;
21554;SDS011;10938;44.794;-0.676;2023-07-20T08:54:29;1.63;;;1.15;;
21554;SDS011;10938;44.794;-0.676;2023-07-20T08:56:57;1.50;;;1.40;;
21554;SDS011;10938;44.794;-0.676;2023-07-20T08:59:23;1.45;;;1.35;;
21554;SDS011;10938;44.794;-0.676;2023-07-20T09:01:48;1.60;;;1.52;;
21554;SDS011;10938;44.794;-0.676;2023-07-20T09:04:14;1.30;;;1.30;;
21554;SDS011;10938;44.794;-0.676;2023-07-20T09:06:39;1.60;;;1.60;;
21554;SDS011;10938;44.794;-0.676;2023-07-20T09:09:05;1.87;;;1.77;;
21554;SDS011;10938;44.794;-0.676;2023-07-20T09:11:30;1.88;;;1.77;;
21554;SDS011;10938;44.794;-0.676;2023-07-20T09:14:05;1.70;;;1.70;;
21554;SDS011;10938;44.794;-0.676;2023-07-20T09:16:31;2.00;;;1.92;;
21554;SDS011;10938;44.794;-0.676;2023-07-20T09:18:57;1.77;;;1.67;;
21554;SDS011;10938;44.794;-0.676;2023-07-20T09:21:23;1.77;;;1.50;;
21554;SDS011;10938;44.794;-0.676;2023-07-20T09:23:48;1.63;;;1.53;;
21554;SDS011;10938;44.794;-0.676;2023-07-20T09:26:14;1.80;;;1.70;;
21554;SDS011;10938;44.794;-0.676;2023-07-20T09:28:47;1.50;;;1.50;;
21554;SDS011;10938;44.794;-0.676;2023-07-20T09:31:16;2.15;;;2.05;;
21554;SDS011;10938;44.794;-0.676;2023-07-20T09:33:45;1.98;;;1.88;;
21554;SDS011;10938;44.794;-0.676;2023-07-20T09:36:11;1.60;;;1.60;;
21554;SDS011;10938;44.794;-0.676;2023-07-20T09:38:41;1.73;;;1.63;;
21554;SDS011;10938;44.794;-0.676;2023-07-20T09:41:07;6.15;;;1.65;;
21554;SDS011;10938;44.794;-0.676;2023-07-20T09:43:36;1.70;;;1.60;;
21554;SDS011;10938;44.794;-0.676;2023-07-20T09:46:01;1.63;;;1.52;;
21554;SDS011;10938;44.794;-0.676;2023-07-20T09:48:27;1.30;;;1.30;;
21554;SDS011;10938;44.794;-0.676;2023-07-20T09:50:52;1.57;;;1.50;;
21554;SDS011;10938;44.794;-0.676;2023-07-20T09:53:18;1.23;;;1.23;;
21554;SDS011;10938;44.794;-0.676;2023-07-20T09:55:44;1.25;;;1.25;;
21554;SDS011;10938;44.794;-0.676;2023-07-20T09:58:09;1.02;;;1.02;;
21554;SDS011;10938;44.794;-0.676;2023-07-20T10:00:36;1.00;;;1.00;;
21554;SDS011;10938;44.794;-0.676;2023-07-20T10:03:01;1.02;;;1.02;;
21554;SDS011;10938;44.794;-0.676;2023-07-20T10:05:28;0.93;;;0.93;;
21554;SDS011;10938;44.794;-0.676;2023-07-20T10:07:58;1.05;;;1.05;;
21554;SDS011;10938;44.794;-0.676;2023-07-20T10:10:24;0.80;;;0.80;;
21554;SDS011;10938;44.794;-0.676;2023-07-20T10:12:49;0.85;;;0.85;;
21554;SDS011;10938;44.794;-0.676;2023-07-20T10:15:24;0.90;;;0.90;;
21554;SDS011;10938;44.794;-0.676;2023-07-20T10:17:59;0.80;;;0.80;;
21554;SDS011;10938;44.794;-0.676;2023-07-20T10:20:27;0.73;;;0.73;;
21554;SDS011;10938;44.794;-0.676;2023-07-20T10:22:53;0.82;;;0.82;;
21554;SDS011;10938;44.794;-0.676;2023-07-20T10:25:19;1.05;;;0.70;;
21554;SDS011;10938;44.794;-0.676;2023-07-20T10:27:45;0.45;;;0.45;;
21554;SDS011;10938;44.794;-0.676;2023-07-20T10:30:11;0.50;;;0.50;;
21554;SDS011;10938;44.794;-0.676;2023-07-20T10:32:36;0.90;;;0.70;;
21554;SDS011;10938;44.794;-0.676;2023-07-20T10:35:02;0.80;;;0.80;;
21554;SDS011;10938;44.794;-0.676;2023-07-20T10:37:46;0.77;;;0.77;;
21554;SDS011;10938;44.794;-0.676;2023-07-20T10:40:24;0.40;;;0.40;;
21554;SDS011;10938;44.794;-0.676;2023-07-20T10:42:49;0.52;;;0.52;;
21554;SDS011;10938;44.794;-0.676;2023-07-20T10:45:15;0.60;;;0.60;;
21554;SDS011;10938;44.794;-0.676;2023-07-20T10:47:44;0.40;;;0.40;;
21554;SDS011;10938;44.794;-0.676;2023-07-20T10:50:10;0.50;;;0.50;;
21554;SDS011;10938;44.794;-0.676;2023-07-20T10:52:37;0.63;;;0.63;;
21554;SDS011;10938;44.794;-0.676;2023-07-20T10:55:15;0.70;;;0.70;;
21554;SDS011;10938;44.794;-0.676;2023-07-20T10:57:41;2.63;;;0.60;;
21554;SDS011;10938;44.794;-0.676;2023-07-20T11:00:18;0.60;;;0.60;;
21554;SDS011;10938;44.794;-0.676;2023-07-20T11:05:31;0.60;;;0.60;;
21554;SDS011;10938;44.794;-0.676;2023-07-20T11:07:54;0.80;;;0.60;;
21554;SDS011;10938;44.794;-0.676;2023-07-20T11:10:19;0.60;;;0.60;;
21554;SDS011;10938;44.794;-0.676;2023-07-20T11:15:44;0.88;;;0.52;;
21554;SDS011;10938;44.794;-0.676;2023-07-20T11:18:12;0.57;;;0.57;;
21554;SDS011;10938;44.794;-0.676;2023-07-20T11:20:37;1.30;;;0.80;;
21554;SDS011;10938;44.794;-0.676;2023-07-20T11:23:03;0.40;;;0.40;;
21554;SDS011;10938;44.794;-0.676;2023-07-20T11:25:35;0.60;;;0.60;;
21554;SDS011;10938;44.794;-0.676;2023-07-20T11:28:01;0.60;;;0.60;;
21554;SDS011;10938;44.794;-0.676;2023-07-20T11:30:26;0.60;;;0.60;;
21554;SDS011;10938;44.794;-0.676;2023-07-20T11:32:51;0.97;;;0.97;;
21554;SDS011;10938;44.794;-0.676;2023-07-20T11:35:16;0.40;;;0.40;;
21554;SDS011;10938;44.794;-0.676;2023-07-20T11:37:42;0.40;;;0.40;;
21554;SDS011;10938;44.794;-0.676;2023-07-20T11:40:08;0.63;;;0.63;;
21554;SDS011;10938;44.794;-0.676;2023-07-20T11:42:34;0.60;;;0.60;;
21554;SDS011;10938;44.794;-0.676;2023-07-20T11:45:01;0.60;;;0.60;;
21554;SDS011;10938;44.794;-0.676;2023-07-20T11:47:28;0.95;;;0.68;;
21554;SDS011;10938;44.794;-0.676;2023-07-20T11:49:54;0.95;;;0.73;;
21554;SDS011;10938;44.794;-0.676;2023-07-20T11:52:19;0.70;;;0.70;;
21554;SDS011;10938;44.794;-0.676;2023-07-20T11:54:48;1.05;;;0.47;;
21554;SDS011;10938;44.794;-0.676;2023-07-20T11:57:17;0.52;;;0.50;;
21554;SDS011;10938;44.794;-0.676;2023-07-20T12:00:02;0.47;;;0.47;;
21554;SDS011;10938;44.794;-0.676;2023-07-20T12:02:30;0.60;;;0.60;;
21554;SDS011;10938;44.794;-0.676;2023-07-20T12:04:56;0.47;;;0.47;;
21554;SDS011;10938;44.794;-0.676;2023-07-20T12:07:22;0.63;;;0.57;;
21554;SDS011;10938;44.794;-0.676;2023-07-20T12:10:04;0.63;;;0.63;;
21554;SDS011;10938;44.794;-0.676;2023-07-20T12:12:31;0.77;;;0.77;;
21554;SDS011;10938;44.794;-0.676;2023-07-20T12:15:11;0.55;;;0.55;;
21554;SDS011;10938;44.794;-0.676;2023-07-20T12:17:41;0.55;;;0.55;;
21554;SDS011;10938;44.794;-0.676;2023-07-20T12:20:06;0.60;;;0.60;;
21554;SDS011;10938;44.794;-0.676;2023-07-20T12:22:32;1.42;;;0.95;;
21554;SDS011;10938;44.794;-0.676;2023-07-20T12:25:05;0.68;;;0.68;;
21554;SDS011;10938;44.794;-0.676;2023-07-20T12:27:30;0.80;;;0.80;;
21554;SDS011;10938;44.794;-0.676;2023-07-20T12:29:55;0.40;;;0.40;;
21554;SDS011;10938;44.794;-0.676;2023-07-20T12:32:22;0.60;;;0.60;;
21554;SDS011;10938;44.794;-0.676;2023-07-20T12:34:47;0.50;;;0.50;;
21554;SDS011;10938;44.794;-0.676;2023-07-20T12:37:13;0.88;;;0.52;;
21554;SDS011;10938;44.794;-0.676;2023-07-20T12:39:38;0.87;;;0.87;;
21554;SDS011;10938;44.794;-0.676;2023-07-20T12:42:05;0.50;;;0.50;;
21554;SDS011;10938;44.794;-0.676;2023-07-20T12:44:31;1.20;;;0.95;;
21554;SDS011;10938;44.794;-0.676;2023-07-20T12:46:56;0.50;;;0.50;;
21554;SDS011;10938;44.794;-0.676;2023-07-20T12:49:21;0.50;;;0.50;;
21554;SDS011;10938;44.794;-0.676;2023-07-20T12:51:46;0.60;;;0.60;;
21554;SDS011;10938;44.794;-0.676;2023-07-20T12:54:12;1.37;;;1.10;;
21554;SDS011;10938;44.794;-0.676;2023-07-20T12:56:37;0.80;;;0.80;;
21554;SDS011;10938;44.794;-0.676;2023-07-20T12:59:02;0.67;;;0.67;;
21554;SDS011;10938;44.794;-0.676;2023-07-20T13:01:28;0.60;;;0.60;;
21554;SDS011;10938;44.794;-0.676;2023-07-20T13:03:53;0.40;;;0.40;;
21554;SDS011;10938;44.794;-0.676;2023-07-20T13:06:19;0.80;;;0.80;;
21554;SDS011;10938;44.794;-0.676;2023-07-20T13:08:45;0.70;;;0.70;;
21554;SDS011;10938;44.794;-0.676;2023-07-20T13:11:10;0.60;;;0.60;;
21554;SDS011;10938;44.794;-0.676;2023-07-20T13:13:35;0.67;;;0.67;;
21554;SDS011;10938;44.794;-0.676;2023-07-20T13:16:00;0.77;;;0.77;;
21554;SDS011;10938;44.794;-0.676;2023-07-20T13:18:27;0.60;;;0.60;;
21554;SDS011;10938;44.794;-0.676;2023-07-20T13:20:55;0.50;;;0.50;;
21554;SDS011;10938;44.794;-0.676;2023-07-20T13:23:20;0.70;;;0.70;;
21554;SDS011;10938;44.794;-0.676;2023-07-20T13:25:45;0.73;;;0.73;;
21554;SDS011;10938;44.794;-0.676;2023-07-20T13:28:11;0.70;;;0.70;;
21554;SDS011;10938;44.794;-0.676;2023-07-20T13:30:36;2.33;;;0.82;;
21554;SDS011;10938;44.794;-0.676;2023-07-20T13:33:02;0.80;;;0.80;;
21554;SDS011;10938;44.794;-0.676;2023-07-20T13:35:27;0.50;;;0.50;;
21554;SDS011;10938;44.794;-0.676;2023-07-20T13:37:52;0.60;;;0.60;;
21554;SDS011;10938;44.794;-0.676;2023-07-20T13:40:17;0.33;;;0.33;;
21554;SDS011;10938;44.794;-0.676;2023-07-20T13:42:44;2.83;;;0.85;;
21554;SDS011;10938;44.794;-0.676;2023-07-20T13:45:10;0.55;;;0.55;;
21554;SDS011;10938;44.794;-0.676;2023-07-20T13:47:35;0.70;;;0.70;;
21554;SDS011;10938;44.794;-0.676;2023-07-20T13:50:00;0.73;;;0.73;;
21554;SDS011;10938;44.794;-0.676;2023-07-20T13:52:26;2.83;;;0.88;;
21554;SDS011;10938;44.794;-0.676;2023-07-20T13:54:51;0.70;;;0.70;;
21554;SDS011;10938;44.794;-0.676;2023-07-20T13:57:16;0.70;;;0.70;;
21554;SDS011;10938;44.794;-0.676;2023-07-20T13:59:42;1.07;;;0.90;;
21554;SDS011;10938;44.794;-0.676;2023-07-20T14:02:07;1.65;;;0.93;;
21554;SDS011;10938;44.794;-0.676;2023-07-20T14:04:33;0.50;;;0.50;;
21554;SDS011;10938;44.794;-0.676;2023-07-20T14:06:58;0.60;;;0.60;;
21554;SDS011;10938;44.794;-0.676;2023-07-20T14:09:23;0.45;;;0.43;;
21554;SDS011;10938;44.794;-0.676;2023-07-20T14:11:49;0.60;;;0.60;;
21554;SDS011;10938;44.794;-0.676;2023-07-20T14:14:14;0.50;;;0.50;;
21554;SDS011;10938;44.794;-0.676;2023-07-20T14:16:39;0.50;;;0.50;;
21554;SDS011;10938;44.794;-0.676;2023-07-20T14:19:05;0.87;;;0.87;;
21554;SDS011;10938;44.794;-0.676;2023-07-20T14:21:30;0.83;;;0.83;;
21554;SDS011;10938;44.794;-0.676;2023-07-20T14:23:56;0.40;;;0.40;;
21554;SDS011;10938;44.794;-0.676;2023-07-20T14:26:22;1.13;;;0.75;;
21554;SDS011;10938;44.794;-0.676;2023-07-20T14:28:48;0.40;;;0.40;;
21554;SDS011;10938;44.794;-0.676;2023-07-20T14:31:13;0.30;;;0.30;;
21554;SDS011;10938;44.794;-0.676;2023-07-20T14:33:39;0.50;;;0.50;;
21554;SDS011;10938;44.794;-0.676;2023-07-20T14:36:04;0.57;;;0.57;;
21554;SDS011;10938;44.794;-0.676;2023-07-20T14:38:33;0.53;;;0.53;;
21554;SDS011;10938;44.794;-0.676;2023-07-20T14:40:58;0.50;;;0.50;;
21554;SDS011;10938;44.794;-0.676;2023-07-20T14:43:24;0.40;;;0.40;;
21554;SDS011;10938;44.794;-0.676;2023-07-20T14:45:49;0.50;;;0.50;;